Учебно-тренировочный маршрут на Бронницы ППП

Описание:


Критерии:
УТП на Бронницы выполняется по ПВП и ППП по часовой стрелке и обратно в онлайн при наличии контроля без использования сторонних программ и GPS. Погодные условия ППП - добавить в чат ФСиин строчку .metar UUDD 021500Z 14007MPS 500 OVC003 02/02 Q1024

© InSky 2013